Time;durP1;ratioP1;P1;durP2;ratioP2;P2;SDS_P1;SDS_P2;PMS_P1;PMS_P2;Temp;Humidity;BMP_temperature;BMP_pressure;BME280_temperature;BME280_humidity;BME280_pressure;Samples;Min_cycle;Max_cycle;Signal;HPM_P1;HPM_P2
2022/03/09 00:00:32;;;;;;;14.60;8.70;;;7.60;43.40;;;;;;5061368;28;20461;-77
2022/03/09 00:02:58;;;;;;;10.10;7.80;;;7.50;43.50;;;;;;5062344;28;20531;-75
2022/03/09 00:05:23;;;;;;;12.43;7.33;;;7.30;44.20;;;;;;5057360;28;20636;-77
2022/03/09 00:07:49;;;;;;;10.10;8.50;;;7.50;44.00;;;;;;5062669;28;20222;-76
2022/03/09 00:10:15;;;;;;;9.87;7.53;;;7.60;43.60;;;;;;5059150;28;21118;-82
2022/03/09 00:12:42;;;;;;;11.07;8.70;;;7.80;43.40;;;;;;5042784;28;20994;-80
2022/03/09 00:15:07;;;;;;;9.80;8.27;;;7.90;43.40;;;;;;5060861;28;20422;-78
2022/03/09 00:17:33;;;;;;;11.17;7.43;;;7.90;43.10;;;;;;5063166;28;20431;-78
2022/03/09 00:19:59;;;;;;;11.63;7.93;;;7.80;43.30;;;;;;5059632;28;20254;-78
2022/03/09 00:22:24;;;;;;;10.03;8.03;;;7.70;43.40;;;;;;5060977;28;20221;-78
2022/03/09 00:24:50;;;;;;;10.50;8.07;;;7.40;44.00;;;;;;5059486;28;20191;-77
2022/03/09 00:27:15;;;;;;;11.73;8.47;;;7.60;43.90;;;;;;5061295;28;20222;-77
2022/03/09 00:29:41;;;;;;;10.70;7.77;;;7.60;43.70;;;;;;5059744;28;20214;-77
2022/03/09 00:32:07;;;;;;;13.73;8.43;;;7.70;43.90;;;;;;5061833;28;20269;-77
2022/03/09 00:34:33;;;;;;;10.07;8.00;;;7.60;43.90;;;;;;5062492;28;20198;-77
2022/03/09 00:36:59;;;;;;;9.80;7.13;;;7.30;44.50;;;;;;5059130;28;20551;-77
2022/03/09 00:39:24;;;;;;;9.83;6.93;;;7.20;44.50;;;;;;5061664;28;20466;-77
2022/03/09 00:41:50;;;;;;;10.93;7.70;;;7.30;44.40;;;;;;5056277;28;20215;-76
2022/03/09 00:44:15;;;;;;;12.20;8.30;;;7.30;44.20;;;;;;5061971;28;20179;-76
2022/03/09 00:46:41;;;;;;;9.60;7.50;;;7.20;44.60;;;;;;5059409;28;20282;-77
2022/03/09 00:49:07;;;;;;;10.43;8.00;;;7.00;45.00;;;;;;5061148;28;20187;-77
2022/03/09 00:51:32;;;;;;;9.30;6.83;;;6.90;45.40;;;;;;5060638;28;20193;-77
2022/03/09 00:53:58;;;;;;;11.47;8.10;;;6.90;45.60;;;;;;5053019;28;20191;-77
2022/03/09 00:56:23;;;;;;;13.03;8.80;;;7.10;45.20;;;;;;5060518;28;20191;-77
2022/03/09 00:58:52;;;;;;;10.17;8.10;;;7.10;45.20;;;;;;5058047;28;20187;-77
2022/03/09 01:01:18;;;;;;;9.70;7.10;;;7.10;45.30;;;;;;5061287;28;20302;-77
2022/03/09 01:03:43;;;;;;;11.10;8.27;;;7.20;45.00;;;;;;5059292;28;20532;-77
2022/03/09 01:06:09;;;;;;;9.70;7.33;;;7.30;45.00;;;;;;5058135;28;20826;-76
2022/03/09 01:08:35;;;;;;;11.80;6.87;;;7.30;45.20;;;;;;5060729;28;20219;-77
2022/03/09 01:11:00;;;;;;;11.30;7.40;;;7.30;45.20;;;;;;5057766;28;20465;-77
2022/03/09 01:13:28;;;;;;;10.63;8.10;;;7.40;45.00;;;;;;5060388;28;20656;-76
2022/03/09 01:15:54;;;;;;;10.50;7.60;;;7.20;45.90;;;;;;5058720;28;20193;-76
2022/03/09 01:18:20;;;;;;;9.33;7.20;;;7.10;45.60;;;;;;5060315;28;20552;-75
2022/03/09 01:20:46;;;;;;;12.67;7.20;;;7.10;45.40;;;;;;5056835;28;20211;-76
2022/03/09 01:23:12;;;;;;;10.17;7.70;;;7.00;45.60;;;;;;5062242;28;20436;-75
2022/03/09 01:25:38;;;;;;;9.40;7.83;;;6.90;45.80;;;;;;5058724;28;20283;-76
2022/03/09 01:28:04;;;;;;;9.67;6.73;;;6.80;46.00;;;;;;5059345;28;20274;-76
2022/03/09 01:30:30;;;;;;;9.97;7.40;;;6.90;45.70;;;;;;5060647;28;20449;-75
2022/03/09 01:32:55;;;;;;;11.17;8.67;;;6.70;45.60;;;;;;5061350;28;20426;-76
2022/03/09 01:35:21;;;;;;;11.63;7.00;;;6.50;46.70;;;;;;5058296;28;20444;-77
2022/03/09 01:37:46;;;;;;;8.33;7.43;;;6.30;46.80;;;;;;5059401;28;20264;-76
2022/03/09 01:40:13;;;;;;;10.23;7.60;;;6.30;47.10;;;;;;5057091;28;20202;-76
2022/03/09 01:42:39;;;;;;;14.50;7.30;;;6.20;47.40;;;;;;5060683;28;20607;-76
2022/03/09 01:45:07;;;;;;;7.60;6.43;;;6.20;47.00;;;;;;5057010;28;20520;-78
2022/03/09 01:47:33;;;;;;;10.30;7.60;;;6.30;47.00;;;;;;5059497;28;20445;-77
2022/03/09 01:49:59;;;;;;;10.00;7.37;;;6.00;47.20;;;;;;5060349;28;20513;-77
2022/03/09 01:52:25;;;;;;;8.80;6.67;;;6.00;47.90;;;;;;5062671;28;20433;-77
2022/03/09 01:54:52;;;;;;;11.33;7.63;;;6.10;47.70;;;;;;5061660;28;20631;-78
2022/03/09 01:57:19;;;;;;;9.30;7.40;;;6.30;47.30;;;;;;5063080;28;20489;-78
2022/03/09 01:59:48;;;;;;;9.80;7.60;;;6.30;47.30;;;;;;5042218;28;20461;-77
2022/03/09 02:02:14;;;;;;;9.77;7.17;;;6.20;47.60;;;;;;5064440;28;20476;-76
2022/03/09 02:04:40;;;;;;;10.70;7.70;;;6.10;47.80;;;;;;5062120;28;20425;-76
2022/03/09 02:07:09;;;;;;;10.70;7.77;;;6.30;47.60;;;;;;5064331;28;20191;-77
2022/03/09 02:09:41;;;;;;;8.60;7.00;;;6.40;47.20;;;;;;5062642;28;20202;-76
2022/03/09 02:12:11;;;;;;;8.23;7.10;;;6.40;47.20;;;;;;5062379;28;21494;-78
2022/03/09 02:14:42;;;;;;;10.47;7.80;;;6.30;47.40;;;;;;5065433;28;20795;-77
2022/03/09 02:17:10;;;;;;;11.77;8.60;;;5.80;48.10;;;;;;5064248;28;20437;-77
2022/03/09 02:19:37;;;;;;;11.40;7.43;;;5.90;48.80;;;;;;5064981;28;20499;-77
2022/03/09 02:22:38;;;;;;;10.60;7.60;;;5.80;49.00;;;;;;5060517;28;20508;-77
2022/03/09 02:25:09;;;;;;;9.50;7.60;;;5.90;48.80;;;;;;5064406;28;20418;-77
2022/03/09 02:27:35;;;;;;;11.90;7.40;;;5.90;49.10;;;;;;5060722;28;20432;-78
2022/03/09 02:30:01;;;;;;;13.40;8.50;;;6.00;49.20;;;;;;5063250;28;21122;-77
2022/03/09 02:32:26;;;;;;;13.97;9.83;;;6.10;49.00;;;;;;5064390;28;20439;-77
2022/03/09 02:34:52;;;;;;;12.10;9.43;;;6.10;48.60;;;;;;5063985;28;20452;-77
2022/03/09 02:37:18;;;;;;;14.40;9.17;;;5.90;49.10;;;;;;5061694;28;20190;-77
2022/03/09 02:39:43;;;;;;;18.00;9.30;;;6.10;49.10;;;;;;5064017;28;20207;-77
2022/03/09 02:42:10;;;;;;;11.57;9.00;;;6.00;49.30;;;;;;5062566;28;20222;-77
2022/03/09 02:44:36;;;;;;;12.10;8.60;;;6.10;49.20;;;;;;5063820;28;20183;-77
2022/03/09 02:47:02;;;;;;;16.07;8.97;;;6.10;49.60;;;;;;5060376;28;20498;-75
2022/03/09 02:49:28;;;;;;;11.40;8.93;;;6.10;49.70;;;;;;5064165;28;20453;-76
2022/03/09 02:51:53;;;;;;;12.40;9.10;;;5.90;50.40;;;;;;5062170;28;20469;-76
2022/03/09 02:54:19;;;;;;;13.60;9.53;;;5.70;50.70;;;;;;5064536;28;20250;-78
2022/03/09 02:56:45;;;;;;;12.17;8.73;;;6.00;50.20;;;;;;5063591;28;20191;-77
2022/03/09 02:59:10;;;;;;;12.23;8.03;;;5.90;50.00;;;;;;5063781;28;20219;-76
2022/03/09 03:01:36;;;;;;;11.80;8.63;;;5.50;50.70;;;;;;5041811;28;20224;-76
2022/03/09 03:04:02;;;;;;;13.17;8.90;;;5.40;51.00;;;;;;5063558;28;20188;-76
2022/03/09 03:06:28;;;;;;;11.00;8.57;;;5.20;51.20;;;;;;5060534;28;20433;-74
2022/03/09 03:08:53;;;;;;;13.17;8.20;;;5.30;51.00;;;;;;5062183;28;20200;-74
2022/03/09 03:11:19;;;;;;;12.70;8.60;;;5.30;51.40;;;;;;5062693;28;20195;-75
2022/03/09 03:13:45;;;;;;;11.80;9.07;;;5.20;51.50;;;;;;5062172;28;20462;-75
2022/03/09 03:16:11;;;;;;;14.07;8.90;;;5.00;51.90;;;;;;5062424;28;20252;-80
2022/03/09 03:18:37;;;;;;;11.37;7.90;;;5.00;51.80;;;;;;5044884;28;20429;-80
2022/03/09 03:21:04;;;;;;;12.23;9.23;;;4.90;51.80;;;;;;5061288;28;20471;-76
2022/03/09 03:23:32;;;;;;;11.70;9.13;;;5.30;51.40;;;;;;5063991;28;20417;-76
2022/03/09 03:25:58;;;;;;;12.37;8.23;;;5.10;51.20;;;;;;5061578;28;20845;-76
2022/03/09 03:28:24;;;;;;;11.83;8.87;;;5.30;51.80;;;;;;5061355;28;20479;-76
2022/03/09 03:30:50;;;;;;;12.83;8.97;;;5.40;51.60;;;;;;5063880;28;21022;-76
2022/03/09 03:33:17;;;;;;;11.70;9.20;;;4.80;52.30;;;;;;5062116;28;20445;-76
2022/03/09 03:35:44;;;;;;;11.93;9.10;;;4.60;53.20;;;;;;5060777;28;20441;-76
2022/03/09 03:38:10;;;;;;;14.37;9.33;;;4.90;53.30;;;;;;5063630;28;20581;-76
2022/03/09 03:40:37;;;;;;;13.57;8.33;;;5.20;52.90;;;;;;5061739;28;20484;-76
2022/03/09 03:43:03;;;;;;;12.30;9.20;;;5.20;52.70;;;;;;5063018;28;20666;-76
2022/03/09 03:45:31;;;;;;;17.43;9.70;;;5.30;53.00;;;;;;5059855;28;20442;-76
2022/03/09 03:47:57;;;;;;;12.77;10.33;;;5.10;53.00;;;;;;5062150;28;20426;-76
2022/03/09 03:50:22;;;;;;;14.27;9.43;;;4.90;53.40;;;;;;5062915;28;20453;-76
2022/03/09 03:52:48;;;;;;;13.97;9.73;;;4.10;54.50;;;;;;5061504;28;20698;-75
2022/03/09 03:55:14;;;;;;;18.37;9.03;;;3.90;55.70;;;;;;5058206;28;20179;-76
2022/03/09 03:57:40;;;;;;;15.27;10.13;;;3.50;56.20;;;;;;5064270;28;20178;-76
2022/03/09 04:00:07;;;;;;;12.07;8.43;;;3.30;57.20;;;;;;5060125;28;20607;-77
2022/03/09 04:02:32;;;;;;;15.80;10.30;;;3.30;58.40;;;;;;5062577;28;20234;-76
2022/03/09 04:04:58;;;;;;;14.17;9.20;;;3.60;58.30;;;;;;5061148;28;20917;-76
2022/03/09 04:07:23;;;;;;;13.80;10.50;;;3.20;58.90;;;;;;5059859;28;20187;-75
2022/03/09 04:09:49;;;;;;;16.10;9.90;;;3.40;59.00;;;;;;5063684;28;20202;-77
2022/03/09 04:12:15;;;;;;;13.30;8.80;;;3.20;59.50;;;;;;5059211;28;20210;-76
2022/03/09 04:14:40;;;;;;;18.43;10.13;;;3.50;59.60;;;;;;5062867;28;20187;-76
2022/03/09 04:17:06;;;;;;;13.20;9.77;;;3.80;58.80;;;;;;5057399;28;20214;-76
2022/03/09 04:19:32;;;;;;;16.90;10.40;;;3.80;58.40;;;;;;5062454;28;20551;-76
2022/03/09 04:21:58;;;;;;;13.97;9.70;;;3.60;58.60;;;;;;5058575;28;20542;-75
2022/03/09 04:24:23;;;;;;;13.70;9.50;;;3.30;59.00;;;;;;5061554;28;20186;-75
2022/03/09 04:26:50;;;;;;;22.50;9.27;;;3.10;59.70;;;;;;5059981;28;20194;-75
2022/03/09 04:29:16;;;;;;;17.00;8.90;;;3.00;59.30;;;;;;5059721;28;20295;-74
2022/03/09 04:31:42;;;;;;;10.50;8.03;;;3.20;59.20;;;;;;5061159;28;21507;-74
2022/03/09 04:34:09;;;;;;;11.77;8.07;;;3.40;58.50;;;;;;5059998;28;20459;-76
2022/03/09 04:36:36;;;;;;;14.40;8.43;;;3.40;58.40;;;;;;5061325;28;20812;-75
2022/03/09 04:39:02;;;;;;;11.07;8.80;;;3.40;57.80;;;;;;5059107;28;20487;-75
2022/03/09 04:41:28;;;;;;;12.93;8.70;;;3.50;57.80;;;;;;5062395;28;20519;-76
2022/03/09 04:43:54;;;;;;;16.00;9.00;;;3.30;57.50;;;;;;5058283;28;20441;-77
2022/03/09 04:46:19;;;;;;;10.17;8.10;;;3.20;58.00;;;;;;5062714;28;20182;-77
2022/03/09 04:48:45;;;;;;;10.97;8.63;;;3.20;58.30;;;;;;5060479;28;20195;-76
2022/03/09 04:51:11;;;;;;;12.47;8.73;;;3.20;58.30;;;;;;5062843;28;20219;-76
2022/03/09 04:53:37;;;;;;;11.60;8.03;;;3.30;58.00;;;;;;5060753;28;20568;-76
2022/03/09 04:56:03;;;;;;;15.00;7.80;;;3.50;57.60;;;;;;5063707;28;20200;-77
2022/03/09 04:58:28;;;;;;;12.37;7.03;;;3.20;57.30;;;;;;5059275;28;20433;-77
2022/03/09 05:00:54;;;;;;;11.10;8.00;;;3.00;57.80;;;;;;5061398;28;20465;-77
2022/03/09 05:03:20;;;;;;;11.80;8.60;;;3.10;58.20;;;;;;5059081;28;20766;-77
2022/03/09 05:05:45;;;;;;;11.63;7.13;;;3.20;57.70;;;;;;5062060;28;20534;-77
2022/03/09 05:08:11;;;;;;;13.90;7.80;;;3.30;57.70;;;;;;5059052;28;20194;-77
2022/03/09 05:10:37;;;;;;;11.53;8.00;;;3.60;57.50;;;;;;5062491;28;20630;-77
2022/03/09 05:13:04;;;;;;;9.70;7.13;;;3.90;56.80;;;;;;5060513;28;20566;-77
2022/03/09 05:15:30;;;;;;;9.47;7.00;;;4.10;56.20;;;;;;5059802;28;20466;-77
2022/03/09 05:17:55;;;;;;;10.70;8.00;;;4.20;55.90;;;;;;5059560;28;20437;-77
2022/03/09 05:20:22;;;;;;;12.57;7.87;;;3.90;56.50;;;;;;5061165;28;20476;-77
2022/03/09 05:22:48;;;;;;;10.23;7.50;;;3.70;56.80;;;;;;5062456;28;20222;-76
2022/03/09 05:25:14;;;;;;;12.27;8.60;;;3.90;56.80;;;;;;5058027;28;20438;-76
2022/03/09 05:27:41;;;;;;;10.50;7.43;;;3.90;56.60;;;;;;5061224;28;20424;-77
2022/03/09 05:30:09;;;;;;;9.37;7.80;;;4.00;56.80;;;;;;5059084;28;20460;-76
2022/03/09 05:32:41;;;;;;;14.87;8.53;;;4.10;56.70;;;;;;5062698;28;21233;-75
2022/03/09 05:35:08;;;;;;;10.07;7.83;;;3.70;56.80;;;;;;5056379;28;20880;-75
2022/03/09 05:37:38;;;;;;;11.47;8.00;;;3.40;58.20;;;;;;5058844;28;20434;-76
2022/03/09 05:40:05;;;;;;;16.47;7.43;;;3.20;58.60;;;;;;5058456;28;21252;-77
2022/03/09 05:42:31;;;;;;;12.23;7.90;;;3.10;59.30;;;;;;5043061;28;20982;-78
2022/03/09 05:44:57;;;;;;;11.33;7.00;;;3.30;59.20;;;;;;5059410;28;20499;-77
2022/03/09 05:47:22;;;;;;;12.93;8.60;;;3.10;59.60;;;;;;5061737;28;20457;-77
2022/03/09 05:49:48;;;;;;;11.50;7.13;;;3.20;59.50;;;;;;5059643;28;20217;-77
2022/03/09 05:52:13;;;;;;;16.00;8.67;;;3.20;59.30;;;;;;5061691;28;20186;-77
2022/03/09 05:54:39;;;;;;;11.43;7.83;;;3.30;59.20;;;;;;5060022;28;20195;-76
2022/03/09 05:57:05;;;;;;;11.53;8.73;;;3.20;59.30;;;;;;5061640;28;20211;-79
2022/03/09 05:59:30;;;;;;;15.67;8.67;;;3.40;59.20;;;;;;5060759;28;20772;-78
2022/03/09 06:01:56;;;;;;;13.73;8.70;;;3.50;58.70;;;;;;5062290;28;20465;-76
2022/03/09 06:04:22;;;;;;;8.47;6.73;;;3.60;58.70;;;;;;5060382;28;20198;-76
2022/03/09 06:06:47;;;;;;;13.53;8.53;;;3.60;58.50;;;;;;5057203;28;20193;-77
2022/03/09 06:09:13;;;;;;;12.43;7.80;;;3.30;59.20;;;;;;5061429;28;20206;-77
2022/03/09 06:11:41;;;;;;;9.33;7.00;;;3.30;59.10;;;;;;5056348;28;20586;-77
2022/03/09 06:14:06;;;;;;;12.93;7.90;;;3.50;59.50;;;;;;5061197;28;20190;-78
2022/03/09 06:16:32;;;;;;;9.50;7.60;;;3.90;58.80;;;;;;5057583;28;20434;-77
2022/03/09 06:18:58;;;;;;;12.00;8.20;;;3.90;58.50;;;;;;5061623;28;20736;-77
2022/03/09 06:21:23;;;;;;;15.00;8.40;;;4.00;58.50;;;;;;5058148;28;20414;-76
2022/03/09 06:23:49;;;;;;;13.53;9.27;;;3.60;58.70;;;;;;5061303;28;20294;-77
2022/03/09 06:26:15;;;;;;;12.73;8.47;;;3.50;59.70;;;;;;5041429;28;20207;-77
2022/03/09 06:28:40;;;;;;;11.20;8.40;;;3.60;59.40;;;;;;5042218;28;20179;-78
2022/03/09 06:31:07;;;;;;;11.97;8.93;;;3.60;59.50;;;;;;5058888;28;20285;-76
2022/03/09 06:33:32;;;;;;;12.90;9.30;;;3.40;59.90;;;;;;5060761;28;20193;-76
2022/03/09 06:35:58;;;;;;;13.17;9.70;;;3.40;60.50;;;;;;5059198;28;20493;-77
2022/03/09 06:38:23;;;;;;;12.93;8.50;;;3.30;61.20;;;;;;5058752;28;20187;-76
2022/03/09 06:40:49;;;;;;;15.93;9.13;;;3.30;61.60;;;;;;5062549;28;20222;-76
2022/03/09 06:43:17;;;;;;;13.30;8.17;;;3.40;61.40;;;;;;5064059;28;20190;-76
2022/03/09 06:45:43;;;;;;;14.43;9.17;;;3.40;61.90;;;;;;5063875;28;20222;-76
2022/03/09 06:48:08;;;;;;;11.73;8.77;;;3.60;61.60;;;;;;5061963;28;20946;-76
2022/03/09 06:50:34;;;;;;;14.90;9.60;;;3.80;60.70;;;;;;5064769;28;20199;-74
2022/03/09 06:53:05;;;;;;;11.90;8.00;;;3.90;60.40;;;;;;5061391;28;20233;-74
2022/03/09 06:55:30;;;;;;;11.67;8.77;;;4.00;59.50;;;;;;5065080;28;20768;-75
2022/03/09 06:57:56;;;;;;;12.43;9.33;;;4.10;59.20;;;;;;5041653;28;20451;-74
2022/03/09 07:00:22;;;;;;;13.97;8.70;;;4.10;58.80;;;;;;5040731;28;20298;-74
2022/03/09 07:02:47;;;;;;;19.07;9.57;;;4.00;58.70;;;;;;5063206;28;20822;-76
2022/03/09 07:05:14;;;;;;;11.20;8.53;;;4.00;59.00;;;;;;5044085;28;20629;-79
2022/03/09 07:07:40;;;;;;;12.53;8.63;;;4.30;60.80;;;;;;5060509;28;20190;-79
2022/03/09 07:10:10;;;;;;;11.17;8.70;;;4.10;58.50;;;;;;5056494;28;20477;-79
2022/03/09 07:12:38;;;;;;;15.87;9.50;;;3.90;58.00;;;;;;5064122;28;20440;-78
2022/03/09 07:15:04;;;;;;;12.60;9.37;;;4.10;57.90;;;;;;5041198;28;20433;-78
2022/03/09 07:17:29;;;;;;;13.30;8.43;;;4.30;57.70;;;;;;5060777;28;20440;-78
2022/03/09 07:19:55;;;;;;;14.13;8.97;;;4.30;57.60;;;;;;5056659;28;20891;-78
2022/03/09 07:22:20;;;;;;;14.63;9.53;;;4.40;57.20;;;;;;5060957;28;20206;-79
2022/03/09 07:24:46;;;;;;;9.90;8.73;;;4.50;56.80;;;;;;5059864;28;20179;-80
2022/03/09 07:27:12;;;;;;;20.53;9.60;;;4.60;56.70;;;;;;5062695;28;20244;-73
2022/03/09 07:29:37;;;;;;;16.20;10.07;;;4.60;56.60;;;;;;5061213;28;20577;-76
2022/03/09 07:32:03;;;;;;;13.80;9.13;;;4.50;56.40;;;;;;5061767;28;20995;-76
2022/03/09 07:34:29;;;;;;;15.53;9.47;;;4.20;57.40;;;;;;5061445;28;20191;-75
2022/03/09 07:36:58;;;;;;;15.77;9.70;;;4.10;58.10;;;;;;5061919;28;20432;-75
2022/03/09 07:39:28;;;;;;;12.00;9.00;;;4.20;57.20;;;;;;5062881;28;20450;-75
2022/03/09 07:41:55;;;;;;;17.13;9.70;;;4.20;57.30;;;;;;5060913;28;20471;-75
2022/03/09 07:44:21;;;;;;;15.13;9.13;;;4.30;57.20;;;;;;5062199;28;20958;-77
2022/03/09 07:46:47;;;;;;;12.90;10.17;;;4.20;57.50;;;;;;5057568;28;20445;-74
2022/03/09 07:49:13;;;;;;;14.80;9.00;;;4.40;57.30;;;;;;5062293;28;20452;-79
2022/03/09 07:51:39;;;;;;;12.57;9.03;;;4.70;56.60;;;;;;5060427;28;20421;-77
2022/03/09 07:54:04;;;;;;;21.47;11.60;;;5.00;56.00;;;;;;5058343;28;20220;-79
2022/03/09 07:56:30;;;;;;;15.60;9.97;;;5.20;55.20;;;;;;5062216;28;20214;-80
2022/03/09 07:58:55;;;;;;;16.53;10.27;;;5.40;55.40;;;;;;5060838;28;20239;-79
2022/03/09 08:01:21;;;;;;;14.03;9.93;;;5.30;55.90;;;;;;5060158;28;20641;-79
2022/03/09 08:03:47;;;;;;;17.37;9.80;;;5.40;55.30;;;;;;5045990;28;20183;-80
2022/03/09 08:06:12;;;;;;;12.37;9.43;;;5.50;55.20;;;;;;5058446;28;20214;-83
2022/03/09 08:08:38;;;;;;;15.70;10.10;;;5.20;55.90;;;;;;5060215;28;20259;-79
2022/03/09 08:11:04;;;;;;;13.17;8.87;;;5.50;55.40;;;;;;5060762;28;20341;-81
2022/03/09 08:13:30;;;;;;;15.70;9.80;;;5.60;54.90;;;;;;5060963;28;20294;-77
2022/03/09 08:15:56;;;;;;;16.33;10.00;;;5.70;54.50;;;;;;5059595;28;20540;-78
2022/03/09 08:18:21;;;;;;;15.53;9.60;;;5.70;54.30;;;;;;5062858;28;20191;-77
2022/03/09 08:20:47;;;;;;;14.00;10.10;;;5.70;54.70;;;;;;5060960;28;21601;-76
2022/03/09 08:23:13;;;;;;;14.57;9.73;;;5.80;54.50;;;;;;5062072;28;20187;-78
2022/03/09 08:25:39;;;;;;;12.90;9.50;;;5.90;54.10;;;;;;5058141;28;20189;-78
2022/03/09 08:28:05;;;;;;;20.63;10.13;;;6.00;54.00;;;;;;5061233;28;20225;-79
2022/03/09 08:30:31;;;;;;;11.13;9.47;;;5.80;53.90;;;;;;5059553;28;21128;-78
2022/03/09 08:32:57;;;;;;;11.57;9.37;;;5.90;53.90;;;;;;5045212;28;21733;-77
2022/03/09 08:35:22;;;;;;;13.83;9.77;;;6.00;53.70;;;;;;5059777;28;20448;-75
2022/03/09 08:37:48;;;;;;;13.33;8.80;;;6.00;53.10;;;;;;5061408;28;20228;-77
2022/03/09 08:40:13;;;;;;;13.80;9.40;;;6.00;52.40;;;;;;5063061;28;20784;-77
2022/03/09 08:42:39;;;;;;;14.90;9.63;;;5.90;52.70;;;;;;5060876;28;20674;-72
2022/03/09 08:45:05;;;;;;;14.47;10.13;;;6.10;52.90;;;;;;5060905;28;20546;-79
2022/03/09 08:47:31;;;;;;;13.70;9.67;;;6.20;53.10;;;;;;5051068;28;20434;-83
2022/03/09 08:49:57;;;;;;;11.73;8.00;;;6.20;53.40;;;;;;5059764;28;20924;-73
2022/03/09 08:52:23;;;;;;;12.83;9.37;;;6.10;52.80;;;;;;5055487;28;20425;-75
2022/03/09 08:54:53;;;;;;;13.17;9.13;;;6.30;52.40;;;;;;5060909;28;20187;-78
2022/03/09 08:57:20;;;;;;;18.87;10.57;;;6.20;52.80;;;;;;5056551;28;20433;-76
2022/03/09 08:59:45;;;;;;;18.03;12.70;;;6.20;52.40;;;;;;5056204;28;20461;-85
2022/03/09 09:02:11;;;;;;;14.03;9.90;;;6.40;52.60;;;;;;5057789;28;20831;-78
2022/03/09 09:04:37;;;;;;;17.20;10.77;;;6.50;52.60;;;;;;5056845;28;20195;-78
2022/03/09 09:07:03;;;;;;;13.07;9.50;;;6.70;52.60;;;;;;5039263;28;20188;-77
2022/03/09 09:09:28;;;;;;;14.33;10.93;;;6.60;52.10;;;;;;5053714;28;20442;-78
2022/03/09 09:11:54;;;;;;;13.10;9.40;;;6.70;52.20;;;;;;5058125;28;20863;-77
2022/03/09 09:14:20;;;;;;;16.90;9.67;;;6.50;51.80;;;;;;5056971;28;20187;-78
2022/03/09 09:16:47;;;;;;;12.40;9.93;;;6.50;52.10;;;;;;5058237;28;20278;-79
2022/03/09 09:19:12;;;;;;;14.43;10.00;;;6.60;52.40;;;;;;5057042;28;20694;-80
2022/03/09 09:21:38;;;;;;;14.10;9.47;;;6.60;52.00;;;;;;5059069;28;20453;-76
2022/03/09 09:24:05;;;;;;;18.03;10.50;;;6.60;52.20;;;;;;5054423;28;20194;-76
2022/03/09 09:26:30;;;;;;;13.37;9.60;;;6.60;52.20;;;;;;5055794;28;20180;-76
2022/03/09 09:28:56;;;;;;;14.60;9.53;;;6.70;52.10;;;;;;5058968;28;20429;-74
2022/03/09 09:31:22;;;;;;;12.67;9.13;;;6.80;51.50;;;;;;5040245;28;20579;-74
2022/03/09 09:33:47;;;;;;;15.60;8.60;;;7.00;51.30;;;;;;5054855;28;20202;-74
2022/03/09 09:36:13;;;;;;;13.93;10.30;;;7.00;51.00;;;;;;5058910;28;20182;-73
2022/03/09 09:38:39;;;;;;;23.13;11.73;;;6.90;50.90;;;;;;5055586;28;20241;-74
2022/03/09 09:41:08;;;;;;;12.63;9.63;;;7.00;50.90;;;;;;5056816;28;20265;-79
2022/03/09 09:43:34;;;;;;;16.57;11.83;;;7.00;51.00;;;;;;5054988;28;20186;-78
2022/03/09 09:46:00;;;;;;;18.27;10.87;;;7.30;50.60;;;;;;5053967;28;20433;-77
2022/03/09 09:48:26;;;;;;;13.00;10.10;;;7.40;50.70;;;;;;5053237;28;20445;-76
2022/03/09 09:50:52;;;;;;;15.70;10.50;;;7.40;50.60;;;;;;5051695;28;20203;-76
2022/03/09 09:53:18;;;;;;;15.70;10.30;;;7.40;49.90;;;;;;5052076;28;20842;-75
2022/03/09 09:55:44;;;;;;;15.23;9.83;;;7.30;50.30;;;;;;5055018;28;20625;-76
2022/03/09 09:58:10;;;;;;;20.33;11.20;;;7.50;50.20;;;;;;5038374;28;20444;-77
2022/03/09 10:00:35;;;;;;;15.73;10.40;;;7.30;49.60;;;;;;5057540;28;20676;-78
2022/03/09 10:03:03;;;;;;;15.30;11.00;;;7.20;49.50;;;;;;5058873;28;20546;-78
2022/03/09 10:05:29;;;;;;;15.53;10.60;;;7.30;49.40;;;;;;5039957;28;20190;-75
2022/03/09 10:08:04;;;;;;;14.20;9.67;;;7.40;49.80;;;;;;5057659;28;20432;-77
2022/03/09 10:10:34;;;;;;;14.73;10.47;;;7.50;49.70;;;;;;5055123;28;20198;-78
2022/03/09 10:13:12;;;;;;;21.27;9.90;;;7.60;48.70;;;;;;5058815;28;20465;-81
2022/03/09 10:15:39;;;;;;;15.70;10.40;;;7.60;49.00;;;;;;5057222;28;20493;-79
2022/03/09 10:18:16;;;;;;;14.30;10.83;;;7.70;48.80;;;;;;5060773;28;20437;-78
2022/03/09 10:20:43;;;;;;;13.40;10.30;;;7.80;49.10;;;;;;5041797;28;20486;-78
2022/03/09 10:23:09;;;;;;;15.00;10.50;;;8.00;48.50;;;;;;5061095;28;20448;-76
2022/03/09 10:25:35;;;;;;;14.47;10.00;;;8.00;48.50;;;;;;5059779;28;20440;-81
2022/03/09 10:28:08;;;;;;;14.50;10.90;;;8.10;48.00;;;;;;5061339;28;20530;-81
2022/03/09 10:30:37;;;;;;;19.40;12.10;;;8.00;48.50;;;;;;5058500;28;20214;-79
2022/03/09 10:33:08;;;;;;;21.43;10.47;;;8.10;49.10;;;;;;5038129;28;20728;-74
2022/03/09 10:35:33;;;;;;;15.37;11.00;;;8.20;48.90;;;;;;5059303;28;20463;-73
2022/03/09 10:38:02;;;;;;;15.27;11.73;;;8.30;48.70;;;;;;5057045;28;20445;-76
2022/03/09 10:40:29;;;;;;;14.33;9.80;;;8.40;48.70;;;;;;5044327;28;20222;-78
2022/03/09 10:43:13;;;;;;;21.33;11.30;;;8.50;48.60;;;;;;5062335;28;20492;-75
2022/03/09 10:46:03;;;;;;;15.47;10.97;;;8.70;48.60;;;;;;5058447;28;20464;-78
2022/03/09 10:49:00;;;;;;;16.07;11.03;;;8.40;48.70;;;;;;5059552;28;20440;-79
2022/03/09 10:51:33;;;;;;;21.03;11.97;;;8.50;48.70;;;;;;5060278;28;20440;-80
2022/03/09 10:54:02;;;;;;;16.27;11.40;;;8.70;48.50;;;;;;5062603;28;20444;-79
2022/03/09 10:56:28;;;;;;;19.00;11.33;;;8.90;48.60;;;;;;5061812;28;20439;-82
2022/03/09 10:58:54;;;;;;;14.03;11.07;;;8.90;48.50;;;;;;5038816;28;20448;-78
2022/03/09 11:01:20;;;;;;;18.07;11.03;;;9.00;48.80;;;;;;5060730;28;20907;-83
2022/03/09 11:03:47;;;;;;;15.40;11.50;;;9.10;48.10;;;;;;5057517;28;20714;-79
2022/03/09 11:06:14;;;;;;;26.53;12.30;;;9.20;47.20;;;;;;5060038;28;20441;-77
2022/03/09 11:08:43;;;;;;;15.77;12.00;;;9.30;47.40;;;;;;5057115;28;20437;-79
2022/03/09 11:11:09;;;;;;;12.77;9.87;;;9.30;47.50;;;;;;5040276;28;20452;-76
2022/03/09 11:13:37;;;;;;;15.80;11.30;;;9.30;47.00;;;;;;5058717;28;21290;-76
2022/03/09 11:16:03;;;;;;;16.30;12.43;;;9.30;46.90;;;;;;5060078;28;20434;-78
2022/03/09 11:18:31;;;;;;;15.80;11.87;;;9.40;47.10;;;;;;5059063;28;20490;-75
2022/03/09 11:21:05;;;;;;;15.50;12.17;;;9.50;47.00;;;;;;5057834;28;20468;-78
2022/03/09 11:23:33;;;;;;;19.17;12.00;;;9.60;46.80;;;;;;5059560;28;20471;-78
2022/03/09 11:26:13;;;;;;;16.00;11.27;;;9.70;47.30;;;;;;5058520;28;20518;-78
2022/03/09 11:28:41;;;;;;;18.40;12.63;;;9.80;47.30;;;;;;5058783;28;20445;-76
2022/03/09 11:31:09;;;;;;;17.87;12.23;;;9.80;46.70;;;;;;5058284;28;20462;-79
2022/03/09 11:33:49;;;;;;;24.00;11.83;;;9.90;47.10;;;;;;5051547;28;20456;-77
2022/03/09 11:36:21;;;;;;;16.90;12.57;;;10.00;46.20;;;;;;5058005;28;20442;-76
2022/03/09 11:38:48;;;;;;;18.40;13.47;;;10.00;45.90;;;;;;5059379;28;20453;-80
2022/03/09 11:41:19;;;;;;;24.20;13.97;;;10.10;45.10;;;;;;5062676;28;20513;-80
2022/03/09 11:43:45;;;;;;;20.63;13.80;;;10.10;44.90;;;;;;5057797;28;20520;-79
2022/03/09 11:46:11;;;;;;;19.77;14.07;;;10.10;44.70;;;;;;5055860;28;20528;-79
2022/03/09 11:48:49;;;;;;;18.93;12.83;;;10.30;45.00;;;;;;5062395;28;20195;-78
2022/03/09 11:51:15;;;;;;;19.20;13.37;;;10.50;45.10;;;;;;5063190;28;20171;-77
2022/03/09 11:53:57;;;;;;;20.13;13.60;;;10.40;44.20;;;;;;5040642;28;20453;-79
2022/03/09 11:56:36;;;;;;;23.60;14.87;;;10.60;43.90;;;;;;5044061;28;20981;-76
2022/03/09 11:59:08;;;;;;;23.97;15.13;;;10.50;43.70;;;;;;5062677;28;20433;-75
2022/03/09 12:02:00;;;;;;;22.90;15.83;;;10.60;43.70;;;;;;5061852;28;20463;-78
2022/03/09 12:04:42;;;;;;;23.60;14.90;;;10.80;43.70;;;;;;5051067;28;20434;-78
2022/03/09 12:07:09;;;;;;;20.67;14.13;;;11.00;43.50;;;;;;5058299;28;20438;-79
2022/03/09 12:09:57;;;;;;;19.90;13.70;;;11.30;43.30;;;;;;5061338;28;20476;-79
2022/03/09 12:12:27;;;;;;;22.77;14.60;;;11.90;43.00;;;;;;5058249;28;20437;-79
2022/03/09 12:15:06;;;;;;;19.07;13.17;;;12.60;41.90;;;;;;5062931;28;20440;-80
2022/03/09 12:17:37;;;;;;;20.60;14.77;;;13.50;41.20;;;;;;5059960;28;20428;-80
2022/03/09 12:20:29;;;;;;;19.93;14.90;;;14.40;40.10;;;;;;5062406;28;20467;-80
2022/03/09 12:22:55;;;;;;;22.20;14.90;;;15.60;38.90;;;;;;5060478;28;20471;-80
2022/03/09 12:25:39;;;;;;;20.40;15.60;;;16.10;38.60;;;;;;5061906;28;20433;-80
2022/03/09 12:28:27;;;;;;;17.53;13.90;;;17.00;38.10;;;;;;5059139;28;20758;-80
2022/03/09 12:31:15;;;;;;;24.97;14.17;;;17.00;38.10;;;;;;5060855;28;20537;-79
2022/03/09 12:33:42;;;;;;;20.50;15.33;;;17.60;37.10;;;;;;5056472;28;20484;-81
2022/03/09 12:36:14;;;;;;;27.40;14.47;;;18.70;37.20;;;;;;5058001;28;20426;-80
2022/03/09 12:38:42;;;;;;;18.40;14.80;;;19.00;35.30;;;;;;5055210;28;20455;-78
2022/03/09 12:41:37;;;;;;;18.83;14.73;;;19.30;35.80;;;;;;5057763;28;20486;-77
2022/03/09 12:44:14;;;;;;;18.70;15.07;;;20.30;35.60;;;;;;5059954;28;20433;-78